Rixford, Pennsylvania
Current Conditions -  °F | °C
As of 7:53 PM on Saturday 25 Oct 2014 (Local Time) from KBFD Reporting Station
Few Clouds Few Clouds  
Wind Chill: 55°   Ceiling: Unl
Heat Index: 55°   Visibility: 10mi
Dew Point: 43°   Wind: 17mph
Humidity: 64%   Direction: 300°WNW
Pressure: 29.7"   Gusts: 26mph
Location:  41.93°N, 78.49°W
Report Text: KBFD 252353Z AUTO 30015G23KT 10SM FEW035 FEW055 13/06 A2970 RMK AO2 PK WND 31027/2331 SLP055 T01280061 10161 20128 53006
Loading
Personal Weather Stations






























Interactive Weather Map
Tropical Storm Tracking
New forecast layout! Learn more

10-Day Weather Forecast

Advertisements
Track Severe Weather on mobile